Time;durP1;ratioP1;P1;durP2;ratioP2;P2;SDS_P1;SDS_P2;PMS_P1;PMS_P2;Temp;Humidity;BMP_temperature;BMP_pressure;BME280_temperature;BME280_humidity;BME280_pressure;Samples;Min_cycle;Max_cycle;Signal;HPM_P1;HPM_P2
2023/10/11 00:00:38;;;;;;;13.23;5.28;;;;;;;;;;5011563;28;20435;-76
2023/10/11 00:03:16;;;;;;;13.13;5.28;;;;;;;;;;5014899;28;20047;-76
2023/10/11 00:05:43;;;;;;;9.05;5.10;;;;;;;;;;5011830;28;20071;-77
2023/10/11 00:08:13;;;;;;;12.15;5.93;;;;;;;;;;5010365;28;20018;-76
2023/10/11 00:11:07;;;;;;;9.15;4.65;;;;;;;;;;5011000;28;20048;-76
2023/10/11 00:13:33;;;;;;;;;;;;;;;;;;5015500;28;20052;-76
2023/10/11 00:16:07;;;;;;;8.30;4.65;;;;;;;;;;5012913;28;19928;-76
2023/10/11 00:18:32;;;;;;;;;;;;;;;;;;5030401;28;20538;-76
2023/10/11 00:20:59;;;;;;;10.57;4.40;;;;;;;;;;5012665;28;19999;-76
2023/10/11 00:23:26;;;;;;;10.98;5.20;;;;;;;;;;5011776;28;20022;-76
2023/10/11 00:25:54;;;;;;;10.00;4.07;;;;;;;;;;5013061;28;20095;-76
2023/10/11 00:28:23;;;;;;;8.18;4.47;;;;;;;;;;5015423;28;20094;-76
2023/10/11 00:30:50;;;;;;;9.30;4.47;;;;;;;;;;5013769;28;20613;-76
2023/10/11 00:33:16;;;;;;;8.80;4.05;;;;;;;;;;5013057;28;20041;-76
2023/10/11 00:35:44;;;;;;;10.15;4.38;;;;;;;;;;5026903;28;20030;-76
2023/10/11 00:38:11;;;;;;;7.45;4.45;;;;;;;;;;5015667;28;20022;-76
2023/10/11 00:40:37;;;;;;;9.38;5.53;;;;;;;;;;5013976;28;20042;-76
2023/10/11 00:43:02;;;;;;;7.55;4.25;;;;;;;;;;5022291;28;20037;-76
2023/10/11 00:45:31;;;;;;;10.80;4.85;;;;;;;;;;5021665;28;20410;-76
2023/10/11 00:47:59;;;;;;;10.35;5.20;;;;;;;;;;5027880;28;20291;-76
2023/10/11 00:50:26;;;;;;;13.38;5.00;;;;;;;;;;5019237;28;20025;-77
2023/10/11 00:52:55;;;;;;;8.18;4.80;;;;;;;;;;5012874;28;20124;-77
2023/10/11 00:55:23;;;;;;;14.13;5.32;;;;;;;;;;5014402;28;20052;-76
2023/10/11 00:57:53;;;;;;;10.75;5.35;;;;;;;;;;5012978;28;20041;-77
2023/10/11 01:00:23;;;;;;;9.38;5.18;;;;;;;;;;5010947;28;20057;-76
2023/10/11 01:02:52;;;;;;;9.75;4.97;;;;;;;;;;5012523;28;20180;-76
2023/10/11 01:05:19;;;;;;;12.05;5.60;;;;;;;;;;5009860;28;20030;-76
2023/10/11 01:07:45;;;;;;;11.55;5.50;;;;;;;;;;5011665;28;20483;-76
2023/10/11 01:10:12;;;;;;;12.00;5.78;;;;;;;;;;5019920;28;20044;-76
2023/10/11 01:12:41;;;;;;;12.02;5.63;;;;;;;;;;5012241;28;20072;-76
2023/10/11 01:15:11;;;;;;;11.65;5.65;;;;;;;;;;5005355;28;20037;-76
2023/10/11 01:17:40;;;;;;;10.60;6.05;;;;;;;;;;5029195;28;20495;-76
2023/10/11 01:20:13;;;;;;;11.93;5.53;;;;;;;;;;5005429;28;20093;-76
2023/10/11 01:22:41;;;;;;;11.33;5.23;;;;;;;;;;5012889;28;20874;-76
2023/10/11 01:25:07;;;;;;;11.65;5.30;;;;;;;;;;5014642;28;20832;-76
2023/10/11 01:27:32;;;;;;;8.13;5.05;;;;;;;;;;5012559;28;20054;-76
2023/10/11 01:29:57;;;;;;;11.52;5.80;;;;;;;;;;5016495;28;20042;-76
2023/10/11 01:32:23;;;;;;;12.00;4.80;;;;;;;;;;5017957;28;20025;-76
2023/10/11 01:34:48;;;;;;;11.07;5.30;;;;;;;;;;5016267;28;20025;-76
2023/10/11 01:37:14;;;;;;;11.40;4.60;;;;;;;;;;5012811;28;20057;-76
2023/10/11 01:39:39;;;;;;;8.20;4.38;;;;;;;;;;5012294;28;20042;-76
2023/10/11 01:42:05;;;;;;;8.90;4.57;;;;;;;;;;5014080;28;20046;-76
2023/10/11 01:44:31;;;;;;;8.80;4.50;;;;;;;;;;5012952;28;20438;-76
2023/10/11 01:46:57;;;;;;;9.45;4.63;;;;;;;;;;5015050;28;20426;-76
2023/10/11 01:49:23;;;;;;;10.07;5.07;;;;;;;;;;5014017;28;20120;-76
2023/10/11 01:51:48;;;;;;;10.20;4.30;;;;;;;;;;5013246;28;20125;-76
2023/10/11 01:54:22;;;;;;;9.43;4.90;;;;;;;;;;5018962;28;20100;-76
2023/10/11 01:56:48;;;;;;;9.40;4.57;;;;;;;;;;5015160;28;20121;-76
2023/10/11 01:59:15;;;;;;;9.55;4.85;;;;;;;;;;5017954;28;20026;-76
2023/10/11 02:01:41;;;;;;;14.05;5.07;;;;;;;;;;5017312;28;20099;-76
2023/10/11 02:04:14;;;;;;;8.85;4.60;;;;;;;;;;5014323;28;20038;-76
2023/10/11 02:06:40;;;;;;;13.63;4.57;;;;;;;;;;5014961;28;20046;-77
2023/10/11 02:09:05;;;;;;;9.57;4.50;;;;;;;;;;5030051;28;20760;-76
2023/10/11 02:11:31;;;;;;;9.38;4.50;;;;;;;;;;5026779;28;20026;-77
2023/10/11 02:13:57;;;;;;;8.95;4.72;;;;;;;;;;5018217;28;20523;-76
2023/10/11 02:16:23;;;;;;;9.57;4.38;;;;;;;;;;5014940;28;20033;-76
2023/10/11 02:18:58;;;;;;;10.63;4.82;;;;;;;;;;5015164;28;20415;-76
2023/10/11 02:21:24;;;;;;;9.57;5.00;;;;;;;;;;5013372;28;20041;-76
2023/10/11 02:23:50;;;;;;;10.93;5.18;;;;;;;;;;5014865;28;20038;-76
2023/10/11 02:26:18;;;;;;;10.73;5.20;;;;;;;;;;5017159;28;20036;-76
2023/10/11 02:28:44;;;;;;;11.50;5.05;;;;;;;;;;5015674;28;20040;-77
2023/10/11 03:29:17;;;;;;;14.48;5.53;;;;;;;;;;5109000;27;20494;-80
2023/10/11 03:31:43;;;;;;;11.82;4.88;;;;;;;;;;5099396;28;20219;-80
2023/10/11 03:34:12;;;;;;;11.65;5.25;;;;;;;;;;5095467;28;20039;-80
2023/10/11 03:36:51;;;;;;;8.60;4.32;;;;;;;;;;5101463;28;20047;-80
2023/10/11 03:39:28;;;;;;;9.80;5.00;;;;;;;;;;5093182;28;20020;-80
2023/10/11 03:42:06;;;;;;;10.45;5.22;;;;;;;;;;5094734;28;20098;-79
2023/10/11 03:44:35;;;;;;;11.25;4.70;;;;;;;;;;5101469;28;20028;-80
2023/10/11 03:47:08;;;;;;;9.30;4.82;;;;;;;;;;5099624;28;20059;-79
2023/10/11 03:49:58;;;;;;;10.25;4.95;;;;;;;;;;5100098;28;20042;-80
2023/10/11 03:52:22;;;;;;;14.23;5.47;;;;;;;;;;5100140;28;20036;-80
2023/10/11 03:55:09;;;;;;;6.78;4.35;;;;;;;;;;5098768;28;20048;-80
2023/10/11 03:57:41;;;;;;;9.90;4.60;;;;;;;;;;5084525;28;20047;-79
2023/10/11 04:00:29;;;;;;;11.90;4.83;;;;;;;;;;5080553;28;20074;-80
2023/10/11 04:02:57;;;;;;;10.35;4.65;;;;;;;;;;5080609;28;20044;-80
2023/10/11 04:05:23;;;;;;;12.00;4.78;;;;;;;;;;5097628;28;20035;-79
2023/10/11 04:07:48;;;;;;;9.75;4.75;;;;;;;;;;5100832;28;20526;-80
2023/10/11 04:10:19;;;;;;;9.10;4.80;;;;;;;;;;5100254;28;20031;-79
2023/10/11 04:12:45;;;;;;;10.02;5.28;;;;;;;;;;5100546;28;20035;-79
2023/10/11 04:15:24;;;;;;;11.52;4.95;;;;;;;;;;5101029;28;20028;-79
2023/10/11 04:17:50;;;;;;;9.27;4.90;;;;;;;;;;5078149;28;20040;-79
2023/10/11 04:20:31;;;;;;;10.63;4.20;;;;;;;;;;5096836;28;20031;-80
2023/10/11 04:23:14;;;;;;;10.52;4.50;;;;;;;;;;5100563;28;20043;-80
2023/10/11 04:25:39;;;;;;;10.25;4.60;;;;;;;;;;5119056;27;20379;-79
2023/10/11 04:28:05;;;;;;;14.70;4.85;;;;;;;;;;5113880;27;20585;-80
2023/10/11 04:30:46;;;;;;;9.48;4.47;;;;;;;;;;5105108;28;20015;-79
2023/10/11 04:33:17;;;;;;;9.80;4.75;;;;;;;;;;5107072;28;20030;-80
2023/10/11 04:35:42;;;;;;;9.48;4.47;;;;;;;;;;5086784;28;20484;-80
2023/10/11 04:38:11;;;;;;;10.07;4.75;;;;;;;;;;5086134;28;20518;-79
2023/10/11 04:40:49;;;;;;;9.27;4.93;;;;;;;;;;5097831;28;20100;-79
2023/10/11 04:43:20;;;;;;;10.32;4.95;;;;;;;;;;5106628;28;20252;-80
2023/10/11 04:45:50;;;;;;;12.20;5.38;;;;;;;;;;5107579;28;20031;-80
2023/10/11 04:48:29;;;;;;;12.68;5.00;;;;;;;;;;5104641;28;20023;-79
2023/10/11 04:51:04;;;;;;;9.52;5.30;;;;;;;;;;5106897;28;20051;-80
2023/10/11 04:53:33;;;;;;;12.60;5.25;;;;;;;;;;5105137;28;20425;-80
2023/10/11 04:55:59;;;;;;;10.75;5.43;;;;;;;;;;5106592;28;20031;-80
2023/10/11 04:58:49;;;;;;;11.73;5.03;;;;;;;;;;5106922;28;20050;-80
2023/10/11 05:01:20;;;;;;;9.43;4.80;;;;;;;;;;5103636;28;20035;-80
2023/10/11 05:03:53;;;;;;;9.75;5.35;;;;;;;;;;5106589;28;20036;-80
2023/10/11 05:06:30;;;;;;;15.10;5.22;;;;;;;;;;5104917;28;20024;-80
2023/10/11 05:09:03;;;;;;;10.07;4.55;;;;;;;;;;5106959;28;20078;-80
2023/10/11 05:11:43;;;;;;;10.82;4.75;;;;;;;;;;5106865;27;20119;-80
2023/10/11 05:17:16;;;;;;;14.05;5.25;;;;;;;;;;5106616;28;20078;-80
2023/10/11 05:22:35;;;;;;;10.02;4.60;;;;;;;;;;5105343;28;20043;-79
2023/10/11 05:32:32;;;;;;;10.55;5.18;;;;;;;;;;5105571;28;20584;-80
2023/10/11 05:35:19;;;;;;;11.00;4.70;;;;;;;;;;5104165;28;20119;-80
2023/10/11 05:51:27;;;;;;;;;;;;;;;;;;5098118;28;20035;-79
2023/10/11 05:53:56;;;;;;;11.70;4.82;;;;;;;;;;5098345;28;19908;-79
2023/10/11 05:56:22;;;;;;;9.50;5.05;;;;;;;;;;5087922;28;20038;-80
2023/10/11 05:58:49;;;;;;;9.85;5.30;;;;;;;;;;5085057;28;20098;-80
2023/10/11 06:01:17;;;;;;;11.75;4.97;;;;;;;;;;5084607;28;20058;-79
2023/10/11 06:03:43;;;;;;;11.20;4.60;;;;;;;;;;5084778;28;20568;-79
2023/10/11 06:06:23;;;;;;;13.57;5.78;;;;;;;;;;5091843;28;20031;-79
2023/10/11 06:08:52;;;;;;;10.30;5.40;;;;;;;;;;5096700;28;20043;-79
2023/10/11 06:11:18;;;;;;;11.98;4.97;;;;;;;;;;5080244;28;20036;-79
2023/10/11 06:13:44;;;;;;;12.93;5.80;;;;;;;;;;5056369;28;20044;-79
2023/10/11 06:16:13;;;;;;;13.02;5.93;;;;;;;;;;5074237;28;20342;-79
2023/10/11 06:18:39;;;;;;;11.93;5.20;;;;;;;;;;5059914;28;21007;-79
2023/10/11 06:21:30;;;;;;;10.65;5.38;;;;;;;;;;5059361;28;20638;-79
2023/10/11 06:24:00;;;;;;;11.63;5.70;;;;;;;;;;5063600;28;20111;-79
2023/10/11 06:26:28;;;;;;;12.60;5.47;;;;;;;;;;5080306;28;20382;-79
2023/10/11 06:29:03;;;;;;;14.38;5.80;;;;;;;;;;5083344;28;20087;-79
2023/10/11 06:31:43;;;;;;;12.27;5.22;;;;;;;;;;5075137;28;20124;-79
2023/10/11 06:34:15;;;;;;;12.95;5.57;;;;;;;;;;5074347;28;20040;-79
2023/10/11 06:36:50;;;;;;;10.95;5.18;;;;;;;;;;5067848;28;20032;-79
2023/10/11 06:42:12;;;;;;;13.65;5.93;;;;;;;;;;5063934;28;20460;-79
2023/10/11 06:44:38;;;;;;;11.48;5.25;;;;;;;;;;5063435;28;20077;-79
2023/10/11 06:47:03;;;;;;;16.30;6.28;;;;;;;;;;5078773;28;20381;-79
2023/10/11 06:49:32;;;;;;;14.30;5.55;;;;;;;;;;5082827;28;20097;-79
2023/10/11 06:52:01;;;;;;;14.43;5.63;;;;;;;;;;5081913;28;20101;-79
2023/10/11 06:54:32;;;;;;;12.85;5.75;;;;;;;;;;5076916;28;20062;-79
2023/10/11 06:56:57;;;;;;;12.98;6.47;;;;;;;;;;5082313;28;20335;-79
2023/10/11 06:59:23;;;;;;;10.85;5.85;;;;;;;;;;5081935;28;20026;-79
2023/10/11 07:01:48;;;;;;;15.23;5.90;;;;;;;;;;5081505;28;20032;-79
2023/10/11 07:04:18;;;;;;;11.70;6.03;;;;;;;;;;5080038;28;20176;-79
2023/10/11 07:06:46;;;;;;;12.82;5.82;;;;;;;;;;5091351;28;20027;-79
2023/10/11 07:09:20;;;;;;;16.08;6.10;;;;;;;;;;5094246;28;20119;-79
2023/10/11 07:12:28;;;;;;;14.50;5.82;;;;;;;;;;5080061;28;20043;-79
2023/10/11 07:14:41;;;;;;;16.30;6.43;;;;;;;;;;5080421;28;20028;-77
2023/10/11 07:17:08;;;;;;;12.60;6.13;;;;;;;;;;5082914;28;20118;-80
2023/10/11 07:19:36;;;;;;;16.48;6.47;;;;;;;;;;5082717;28;20587;-79
2023/10/11 07:22:03;;;;;;;13.50;5.63;;;;;;;;;;5081930;28;20035;-79
2023/10/11 07:24:33;;;;;;;13.68;6.38;;;;;;;;;;5090587;28;20043;-79
2023/10/11 07:27:09;;;;;;;12.27;6.00;;;;;;;;;;5101173;28;20051;-79
2023/10/11 07:29:46;;;;;;;13.45;6.10;;;;;;;;;;5097494;28;20032;-79
2023/10/11 07:32:11;;;;;;;11.15;6.03;;;;;;;;;;5102899;28;20028;-79
2023/10/11 07:34:38;;;;;;;12.60;6.07;;;;;;;;;;5101145;28;20088;-80
2023/10/11 07:37:06;;;;;;;14.10;6.03;;;;;;;;;;5102788;28;20449;-78
2023/10/11 07:39:34;;;;;;;15.68;5.82;;;;;;;;;;5102718;28;20032;-79
2023/10/11 07:42:08;;;;;;;20.10;7.45;;;;;;;;;;5101058;28;20685;-78
2023/10/11 07:44:36;;;;;;;16.45;6.35;;;;;;;;;;5101703;28;20619;-78
2023/10/11 07:47:03;;;;;;;13.48;6.45;;;;;;;;;;5100991;28;20037;-78
2023/10/11 07:49:37;;;;;;;19.33;6.57;;;;;;;;;;5083201;28;20047;-78
2023/10/11 07:52:07;;;;;;;15.30;5.50;;;;;;;;;;5082631;28;20500;-78
2023/10/11 07:54:33;;;;;;;14.93;6.25;;;;;;;;;;5102308;28;20039;-77
2023/10/11 07:57:00;;;;;;;13.98;5.55;;;;;;;;;;5103125;28;20032;-78
2023/10/11 07:59:27;;;;;;;18.45;6.57;;;;;;;;;;5103575;28;20396;-79
2023/10/11 08:01:56;;;;;;;17.85;6.85;;;;;;;;;;5102845;28;20606;-78
2023/10/11 08:04:27;;;;;;;15.23;6.30;;;;;;;;;;5105804;28;20043;-77
2023/10/11 08:06:59;;;;;;;13.55;6.18;;;;;;;;;;5107920;27;20051;-78
2023/10/11 08:09:46;;;;;;;20.58;7.10;;;;;;;;;;5107507;28;20518;-78
2023/10/11 08:12:14;;;;;;;19.45;7.57;;;;;;;;;;5096825;27;20124;-78
2023/10/11 08:14:44;;;;;;;16.30;7.97;;;;;;;;;;5087312;28;20024;-78
2023/10/11 08:17:14;;;;;;;19.77;8.32;;;;;;;;;;5086299;28;20885;-79
2023/10/11 08:19:44;;;;;;;17.63;7.55;;;;;;;;;;5087104;28;20043;-80
2023/10/11 08:22:11;;;;;;;16.60;7.72;;;;;;;;;;5086958;28;20040;-79
2023/10/11 08:25:12;;;;;;;16.95;7.97;;;;;;;;;;5085932;28;20575;-79
2023/10/11 08:27:27;;;;;;;15.80;7.40;;;;;;;;;;5083602;28;20044;-79
2023/10/11 08:30:09;;;;;;;17.15;7.07;;;;;;;;;;5087256;28;20925;-79
2023/10/11 08:32:42;;;;;;;13.07;6.10;;;;;;;;;;5086895;28;20043;-80
2023/10/11 08:35:31;;;;;;;12.15;6.57;;;;;;;;;;5087860;28;20115;-80
2023/10/11 08:38:02;;;;;;;12.32;6.05;;;;;;;;;;5087114;28;20044;-79
2023/10/11 08:40:35;;;;;;;14.73;6.05;;;;;;;;;;5086375;28;20028;-79
2023/10/11 08:43:01;;;;;;;16.98;5.60;;;;;;;;;;5086734;28;20058;-79
2023/10/11 08:45:33;;;;;;;12.80;6.25;;;;;;;;;;5087235;28;20054;-79
2023/10/11 08:48:05;;;;;;;15.68;6.80;;;;;;;;;;5099076;28;21014;-80
2023/10/11 08:50:36;;;;;;;13.75;6.22;;;;;;;;;;5107073;28;20019;-80
2023/10/11 08:53:08;;;;;;;11.45;6.07;;;;;;;;;;5107165;28;20076;-80
2023/10/11 08:55:39;;;;;;;11.13;5.67;;;;;;;;;;5105397;28;20066;-80
2023/10/11 08:58:05;;;;;;;15.25;5.85;;;;;;;;;;5106853;27;20042;-80
2023/10/11 09:00:33;;;;;;;16.73;6.85;;;;;;;;;;5105593;28;20567;-79
2023/10/11 09:03:18;;;;;;;16.02;6.50;;;;;;;;;;5104692;28;20517;-80
2023/10/11 09:05:44;;;;;;;20.90;6.55;;;;;;;;;;5106871;28;20023;-80
2023/10/11 09:08:26;;;;;;;13.55;6.40;;;;;;;;;;5107055;28;20036;-80
2023/10/11 09:11:14;;;;;;;15.68;6.75;;;;;;;;;;5105182;28;20043;-80
2023/10/11 09:13:40;;;;;;;13.32;6.82;;;;;;;;;;5106341;28;20321;-80
2023/10/11 09:16:11;;;;;;;15.73;6.95;;;;;;;;;;5091307;28;20522;-80
2023/10/11 09:18:37;;;;;;;16.55;7.10;;;;;;;;;;5093749;28;20125;-80
2023/10/11 09:21:18;;;;;;;13.15;6.90;;;;;;;;;;5100555;28;20042;-80
2023/10/11 09:23:48;;;;;;;14.68;6.80;;;;;;;;;;5086048;28;20078;-80
2023/10/11 09:26:21;;;;;;;14.75;6.85;;;;;;;;;;5084871;28;20070;-80
2023/10/11 09:29:02;;;;;;;17.27;7.07;;;;;;;;;;5085976;28;20620;-80
2023/10/11 09:31:30;;;;;;;14.27;7.13;;;;;;;;;;5085430;28;20032;-80
2023/10/11 09:33:59;;;;;;;14.52;6.85;;;;;;;;;;5085683;28;20067;-80
2023/10/11 09:36:28;;;;;;;17.48;7.57;;;;;;;;;;5085600;28;20043;-80
2023/10/11 09:38:54;;;;;;;17.05;6.80;;;;;;;;;;5088371;27;20043;-80
2023/10/11 09:41:42;;;;;;;14.73;7.65;;;;;;;;;;5106425;28;20505;-80
2023/10/11 09:44:12;;;;;;;15.25;7.88;;;;;;;;;;5106532;28;20097;-80
2023/10/11 09:46:38;;;;;;;13.98;7.55;;;;;;;;;;5105330;28;20036;-80
2023/10/11 09:49:12;;;;;;;16.10;8.00;;;;;;;;;;5104153;28;20463;-80
2023/10/11 09:51:41;;;;;;;14.75;7.05;;;;;;;;;;5106284;28;20085;-80
2023/10/11 09:54:12;;;;;;;17.85;7.20;;;;;;;;;;5105706;28;20038;-85
2023/10/11 09:56:54;;;;;;;17.23;8.05;;;;;;;;;;5105137;28;20517;-86
2023/10/11 09:59:38;;;;;;;15.40;7.45;;;;;;;;;;5088304;28;20032;-84
2023/10/11 10:02:07;;;;;;;;;;;;;;;;;;5093376;28;20073;-81
2023/10/11 10:04:51;;;;;;;18.77;7.97;;;;;;;;;;5105954;28;19950;-81
2023/10/11 10:07:28;;;;;;;14.60;6.85;;;;;;;;;;5105071;28;20040;-81
2023/10/11 10:10:00;;;;;;;13.82;7.18;;;;;;;;;;5105790;28;20070;-81
2023/10/11 10:12:31;;;;;;;17.55;7.28;;;;;;;;;;5105102;28;20242;-81
2023/10/11 10:15:14;;;;;;;16.40;7.32;;;;;;;;;;5101435;27;20034;-81
2023/10/11 10:18:05;;;;;;;12.85;6.45;;;;;;;;;;5083970;28;20074;-80
2023/10/11 10:20:33;;;;;;;15.98;7.57;;;;;;;;;;5091381;27;20451;-80
2023/10/11 10:23:14;;;;;;;14.27;6.82;;;;;;;;;;5096472;28;20032;-79
2023/10/11 10:25:40;;;;;;;15.13;7.63;;;;;;;;;;5093040;28;20047;-80
2023/10/11 10:28:35;;;;;;;13.63;7.00;;;;;;;;;;5088918;28;20059;-80
2023/10/11 10:31:18;;;;;;;16.30;7.38;;;;;;;;;;5088543;28;20080;-80
2023/10/11 10:33:49;;;;;;;17.35;7.13;;;;;;;;;;5100831;28;20031;-82
2023/10/11 10:36:21;;;;;;;15.35;7.43;;;;;;;;;;5103626;28;20036;-81
2023/10/11 10:39:03;;;;;;;11.25;6.65;;;;;;;;;;5105082;28;20039;-81
2023/10/11 10:41:33;;;;;;;14.40;6.45;;;;;;;;;;5105577;28;20524;-81
2023/10/11 10:44:14;;;;;;;16.02;6.72;;;;;;;;;;5104985;28;20039;-82
2023/10/11 10:46:50;;;;;;;14.27;6.95;;;;;;;;;;5104804;28;20039;-82
2023/10/11 10:49:19;;;;;;;17.75;6.90;;;;;;;;;;5104659;28;20047;-82
2023/10/11 10:51:47;;;;;;;13.15;7.47;;;;;;;;;;5104803;28;20604;-82
2023/10/11 10:54:22;;;;;;;13.48;6.53;;;;;;;;;;5104691;28;20161;-82
2023/10/11 10:56:48;;;;;;;15.02;6.68;;;;;;;;;;5102923;28;20405;-82
2023/10/11 10:59:15;;;;;;;10.57;6.47;;;;;;;;;;5104498;28;20028;-82
2023/10/11 11:01:44;;;;;;;10.25;6.28;;;;;;;;;;5104129;28;20054;-81
2023/10/11 11:04:14;;;;;;;14.90;6.55;;;;;;;;;;5104068;28;20470;-81
2023/10/11 11:06:46;;;;;;;17.05;6.45;;;;;;;;;;5104215;28;20038;-81
2023/10/11 11:09:14;;;;;;;14.02;6.00;;;;;;;;;;5104351;28;20078;-82
2023/10/11 11:11:43;;;;;;;11.10;6.32;;;;;;;;;;5102152;28;20047;-80
2023/10/11 11:14:10;;;;;;;15.20;7.18;;;;;;;;;;5104651;28;20023;-81
2023/10/11 11:16:39;;;;;;;11.63;6.75;;;;;;;;;;5104036;28;20036;-81
2023/10/11 11:19:17;;;;;;;14.50;7.90;;;;;;;;;;5103588;28;20039;-82
2023/10/11 11:21:46;;;;;;;15.90;7.75;;;;;;;;;;5103973;28;20042;-82
2023/10/11 11:24:34;;;;;;;19.23;8.55;;;;;;;;;;5097794;28;20028;-82
2023/10/11 11:26:59;;;;;;;16.17;8.07;;;;;;;;;;5081552;28;20475;-82
2023/10/11 11:29:31;;;;;;;13.30;7.40;;;;;;;;;;5083886;28;20127;-82
2023/10/11 11:31:59;;;;;;;12.93;6.70;;;;;;;;;;5083711;28;20048;-82
2023/10/11 11:34:28;;;;;;;14.57;7.65;;;;;;;;;;5082312;28;20040;-82
2023/10/11 11:37:04;;;;;;;11.18;6.28;;;;;;;;;;5083608;28;20040;-82
2023/10/11 11:39:39;;;;;;;11.93;6.80;;;;;;;;;;5083386;28;20028;-81
2023/10/11 11:42:15;;;;;;;12.30;6.63;;;;;;;;;;5088241;28;20028;-81
2023/10/11 11:44:43;;;;;;;13.13;6.43;;;;;;;;;;5086705;28;20020;-83
2023/10/11 11:47:09;;;;;;;12.55;5.57;;;;;;;;;;5087139;27;20027;-80
2023/10/11 11:49:34;;;;;;;12.30;5.57;;;;;;;;;;5105685;28;20032;-80
2023/10/11 11:52:00;;;;;;;14.07;5.70;;;;;;;;;;5107108;28;20059;-81
2023/10/11 11:54:29;;;;;;;10.45;5.20;;;;;;;;;;5107463;28;20823;-81
2023/10/11 11:56:56;;;;;;;9.70;5.15;;;;;;;;;;5107839;28;20159;-86
2023/10/11 11:59:22;;;;;;;13.40;6.10;;;;;;;;;;5097164;28;20028;-81
2023/10/11 12:01:53;;;;;;;9.00;5.63;;;;;;;;;;5088905;28;20910;-81
2023/10/11 12:04:33;;;;;;;14.95;5.63;;;;;;;;;;5095678;28;20050;-81
2023/10/11 12:07:00;;;;;;;10.80;5.30;;;;;;;;;;5085334;28;20048;-81
2023/10/11 12:09:35;;;;;;;11.73;5.32;;;;;;;;;;5090062;27;20100;-80
2023/10/11 12:12:03;;;;;;;12.80;5.25;;;;;;;;;;5106306;27;20119;-80
2023/10/11 12:14:29;;;;;;;9.85;4.93;;;;;;;;;;5107090;28;20027;-80
2023/10/11 12:16:55;;;;;;;10.52;5.05;;;;;;;;;;5107761;28;20047;-81
2023/10/11 12:19:21;;;;;;;11.27;4.75;;;;;;;;;;5107275;28;20036;-81
2023/10/11 12:21:47;;;;;;;10.85;4.82;;;;;;;;;;5106686;28;20796;-80
2023/10/11 12:24:12;;;;;;;9.52;4.93;;;;;;;;;;5107325;27;20063;-81
2023/10/11 12:26:42;;;;;;;11.73;4.68;;;;;;;;;;5103686;28;20024;-81
2023/10/11 12:29:14;;;;;;;10.77;5.00;;;;;;;;;;5085919;28;20046;-81
2023/10/11 12:31:41;;;;;;;9.20;4.90;;;;;;;;;;5084660;28;20044;-81
2023/10/11 12:34:11;;;;;;;9.48;5.60;;;;;;;;;;5086811;28;20075;-80
2023/10/11 12:36:41;;;;;;;10.82;5.43;;;;;;;;;;5087125;28;20051;-80
2023/10/11 12:39:20;;;;;;;10.18;6.22;;;;;;;;;;5087440;28;20053;-81
2023/10/11 12:41:49;;;;;;;10.68;5.85;;;;;;;;;;5099611;28;20483;-80
2023/10/11 12:44:18;;;;;;;12.13;5.93;;;;;;;;;;5118604;28;20031;-80
2023/10/11 12:46:49;;;;;;;9.80;5.35;;;;;;;;;;5100813;28;20024;-81
2023/10/11 12:49:18;;;;;;;9.55;5.28;;;;;;;;;;5105453;27;20038;-81
2023/10/11 12:51:45;;;;;;;11.18;5.25;;;;;;;;;;5106629;28;20471;-80
2023/10/11 12:54:15;;;;;;;8.10;4.75;;;;;;;;;;5106071;28;20038;-80
2023/10/11 12:56:42;;;;;;;9.93;5.95;;;;;;;;;;5106779;27;20030;-80
2023/10/11 12:59:15;;;;;;;12.02;4.95;;;;;;;;;;5106231;28;20020;-82
2023/10/11 13:01:49;;;;;;;11.95;4.82;;;;;;;;;;5106420;28;20047;-81
2023/10/11 13:04:23;;;;;;;9.02;4.65;;;;;;;;;;5105998;28;20125;-86
2023/10/11 13:06:50;;;;;;;9.82;4.90;;;;;;;;;;5106697;27;20035;-81
2023/10/11 13:09:21;;;;;;;9.70;4.20;;;;;;;;;;5106430;28;20084;-81
2023/10/11 13:11:47;;;;;;;10.90;5.50;;;;;;;;;;5106526;28;20020;-81
2023/10/11 13:14:19;;;;;;;8.40;4.97;;;;;;;;;;5106544;28;20028;-81
2023/10/11 13:16:49;;;;;;;10.38;4.70;;;;;;;;;;5105957;28;20097;-82
2023/10/11 13:19:17;;;;;;;10.10;4.78;;;;;;;;;;5106286;28;20076;-82
2023/10/11 13:21:47;;;;;;;8.82;4.88;;;;;;;;;;5106099;28;20051;-81
2023/10/11 13:24:13;;;;;;;10.88;4.90;;;;;;;;;;5106004;28;20073;-82
2023/10/11 13:26:46;;;;;;;7.50;4.63;;;;;;;;;;5104769;28;20034;-82
2023/10/11 13:29:21;;;;;;;12.68;4.88;;;;;;;;;;5106007;28;20131;-81
2023/10/11 13:31:51;;;;;;;7.55;4.57;;;;;;;;;;5104555;28;20445;-82
2023/10/11 13:34:16;;;;;;;10.40;4.38;;;;;;;;;;5105693;28;20051;-82
2023/10/11 13:36:43;;;;;;;8.02;4.78;;;;;;;;;;5104674;28;20047;-81
2023/10/11 13:39:27;;;;;;;10.15;4.95;;;;;;;;;;5106152;28;20044;-81
2023/10/11 13:42:09;;;;;;;15.40;5.30;;;;;;;;;;5104169;28;20035;-81
2023/10/11 13:44:37;;;;;;;8.75;4.85;;;;;;;;;;5105944;28;20031;-81
2023/10/11 13:47:03;;;;;;;10.80;5.00;;;;;;;;;;5106064;28;20031;-81
2023/10/11 13:49:33;;;;;;;7.03;4.70;;;;;;;;;;5105256;27;20039;-81
2023/10/11 13:52:02;;;;;;;11.52;5.07;;;;;;;;;;5105616;28;20135;-81
2023/10/11 13:54:32;;;;;;;8.65;5.13;;;;;;;;;;5105523;28;20035;-81
2023/10/11 13:57:17;;;;;;;11.07;5.55;;;;;;;;;;5105561;27;20031;-81
2023/10/11 13:59:46;;;;;;;8.82;4.75;;;;;;;;;;5103910;28;20031;-81
2023/10/11 14:05:18;;;;;;;10.43;4.10;;;;;;;;;;5074670;28;20173;-81
2023/10/11 14:07:50;;;;;;;8.77;4.28;;;;;;;;;;5097484;28;20044;-82
2023/10/11 14:10:21;;;;;;;8.63;4.63;;;;;;;;;;5102653;28;20043;-82
2023/10/11 14:12:46;;;;;;;9.23;4.55;;;;;;;;;;5105435;28;20044;-82
2023/10/11 14:15:17;;;;;;;9.55;3.80;;;;;;;;;;5101573;28;20422;-82
2023/10/11 14:17:48;;;;;;;6.93;4.20;;;;;;;;;;5105470;28;20054;-81
2023/10/11 14:20:25;;;;;;;8.35;4.40;;;;;;;;;;5105908;28;20058;-85
2023/10/11 14:22:51;;;;;;;9.48;4.10;;;;;;;;;;5105471;28;20039;-82
2023/10/11 14:25:18;;;;;;;11.15;4.40;;;;;;;;;;5105286;28;20039;-82
2023/10/11 14:27:45;;;;;;;7.82;4.25;;;;;;;;;;5104952;28;20139;-81
2023/10/11 14:30:14;;;;;;;5.35;3.50;;;;;;;;;;5105794;28;20093;-82
2023/10/11 14:32:45;;;;;;;7.32;3.88;;;;;;;;;;5104818;28;20100;-80
2023/10/11 14:35:15;;;;;;;7.63;4.38;;;;;;;;;;5105562;28;20114;-80
2023/10/11 14:37:40;;;;;;;9.32;3.97;;;;;;;;;;5106814;28;20046;-88
2023/10/11 14:40:14;;;;;;;8.32;3.83;;;;;;;;;;5090099;28;20047;-84
2023/10/11 14:42:40;;;;;;;;;;;;;;;;;;5090719;28;20048;-84
2023/10/11 14:45:06;;;;;;;10.30;4.13;;;;;;;;;;5101633;28;19919;-83
2023/10/11 14:56:19;;;;;;;6.63;3.75;;;;;;;;;;5004232;23;20298;-74
2023/10/11 14:58:45;;;;;;;6.70;3.83;;;;;;;;;;4991134;28;20041;-74
2023/10/11 15:01:14;;;;;;;5.18;3.58;;;;;;;;;;5000135;28;20060;-74
2023/10/11 15:03:40;;;;;;;10.57;3.53;;;;;;;;;;5000472;28;20044;-74
2023/10/11 15:06:10;;;;;;;11.43;4.40;;;;;;;;;;4999321;28;20025;-73
2023/10/11 15:08:45;;;;;;;6.75;3.72;;;;;;;;;;5000347;28;20571;-73
2023/10/11 15:11:14;;;;;;;9.25;3.80;;;;;;;;;;4999027;28;20022;-73
2023/10/11 15:13:39;;;;;;;7.45;3.80;;;;;;;;;;4998862;28;20548;-73
2023/10/11 15:16:05;;;;;;;7.80;3.75;;;;;;;;;;5000072;28;20041;-73
2023/10/11 15:18:35;;;;;;;9.80;4.50;;;;;;;;;;5001520;28;20096;-74
2023/10/11 15:21:02;;;;;;;15.23;4.38;;;;;;;;;;4988577;28;20056;-73
2023/10/11 15:23:29;;;;;;;6.65;3.50;;;;;;;;;;4987566;28;20026;-73
2023/10/11 15:25:55;;;;;;;7.93;3.53;;;;;;;;;;5003069;28;20052;-74
2023/10/11 15:28:22;;;;;;;7.95;3.33;;;;;;;;;;5003194;28;20038;-74
2023/10/11 15:30:48;;;;;;;7.50;3.28;;;;;;;;;;5002335;28;20049;-74
2023/10/11 15:33:18;;;;;;;8.38;3.33;;;;;;;;;;4985077;28;20068;-73
2023/10/11 15:35:56;;;;;;;6.85;3.38;;;;;;;;;;4985764;28;20080;-74
2023/10/11 15:38:22;;;;;;;9.75;2.90;;;;;;;;;;5000962;28;20561;-73
2023/10/11 15:41:04;;;;;;;9.30;4.07;;;;;;;;;;5021104;28;20532;-74
2023/10/11 15:43:34;;;;;;;10.60;3.95;;;;;;;;;;5022704;28;20084;-74
2023/10/11 15:46:00;;;;;;;5.65;2.75;;;;;;;;;;5024915;28;20076;-74
2023/10/11 15:48:28;;;;;;;8.88;3.00;;;;;;;;;;5011831;28;20076;-73
2023/10/11 15:51:03;;;;;;;10.65;3.38;;;;;;;;;;5025822;28;20125;-73
2023/10/11 15:53:29;;;;;;;6.05;3.00;;;;;;;;;;5023365;28;20017;-74
2023/10/11 15:55:54;;;;;;;8.93;3.10;;;;;;;;;;5021755;28;20398;-74
2023/10/11 15:58:20;;;;;;;7.30;3.22;;;;;;;;;;5032449;28;20032;-74
2023/10/11 16:00:45;;;;;;;10.60;3.85;;;;;;;;;;5042245;28;20446;-73
2023/10/11 16:03:11;;;;;;;7.30;3.22;;;;;;;;;;5042248;28;20075;-74
2023/10/11 16:05:37;;;;;;;6.93;3.20;;;;;;;;;;5020117;28;20120;-74
2023/10/11 16:08:05;;;;;;;10.93;3.83;;;;;;;;;;5020063;28;20516;-74
2023/10/11 16:10:32;;;;;;;8.07;3.60;;;;;;;;;;5019781;28;20045;-74
2023/10/11 16:13:01;;;;;;;10.00;4.20;;;;;;;;;;5000292;28;20045;-74
2023/10/11 16:15:28;;;;;;;7.50;3.08;;;;;;;;;;5019421;28;20030;-75
2023/10/11 16:17:53;;;;;;;6.85;3.05;;;;;;;;;;5020306;28;20037;-74
2023/10/11 16:20:19;;;;;;;12.18;3.47;;;;;;;;;;5020464;28;20450;-74
2023/10/11 16:22:44;;;;;;;8.05;3.30;;;;;;;;;;5017951;28;20383;-74
2023/10/11 16:25:12;;;;;;;8.82;2.97;;;;;;;;;;5020213;28;20416;-74
2023/10/11 16:27:39;;;;;;;7.00;3.13;;;;;;;;;;5004754;28;20050;-74
2023/10/11 16:30:06;;;;;;;9.23;3.15;;;;;;;;;;5022137;28;20512;-74
2023/10/11 16:32:33;;;;;;;9.10;3.10;;;;;;;;;;5003980;28;20029;-74
2023/10/11 16:34:59;;;;;;;7.10;3.50;;;;;;;;;;5023147;28;20107;-74